createdAt,value
2022-11-27T00:00:57.225Z,49.50
2022-11-27T00:03:24.202Z,54.70
2022-11-27T00:05:52.218Z,49.93
2022-11-27T00:08:19.092Z,51.73
2022-11-27T00:10:45.927Z,59.70
2022-11-27T00:13:12.761Z,55.73
2022-11-27T00:15:39.693Z,49.13
2022-11-27T00:18:06.651Z,46.10
2022-11-27T00:20:33.547Z,52.80
2022-11-27T00:23:00.608Z,50.30
2022-11-27T00:25:27.430Z,48.20
2022-11-27T00:27:54.450Z,52.77
2022-11-27T00:30:21.359Z,49.73
2022-11-27T00:32:48.241Z,56.60
2022-11-27T00:35:15.222Z,55.83
2022-11-27T00:37:42.154Z,52.53
2022-11-27T00:40:09.254Z,52.57
2022-11-27T00:42:36.050Z,58.10
2022-11-27T00:45:02.953Z,58.90
2022-11-27T00:47:29.920Z,51.27
2022-11-27T00:49:57.069Z,59.40
2022-11-27T00:52:23.874Z,52.77
2022-11-27T00:54:50.930Z,56.60
2022-11-27T00:57:17.845Z,55.73
2022-11-27T00:59:44.721Z,47.63
2022-11-27T01:02:11.591Z,53.83
2022-11-27T01:04:38.603Z,49.23
2022-11-27T01:07:05.757Z,53.27
2022-11-27T01:09:32.617Z,53.43
2022-11-27T01:11:59.595Z,50.03
2022-11-27T01:14:26.389Z,47.20
2022-11-27T01:16:53.328Z,53.97
2022-11-27T01:19:20.176Z,58.47
2022-11-27T01:21:47.386Z,54.47
2022-11-27T01:24:15.191Z,54.20
2022-11-27T01:26:42.539Z,52.10
2022-11-27T01:29:09.688Z,46.63
2022-11-27T01:31:36.662Z,52.03
2022-11-27T01:34:08.749Z,49.17
2022-11-27T01:36:35.911Z,55.30
2022-11-27T01:39:02.950Z,57.67
2022-11-27T01:41:33.822Z,48.80
2022-11-27T01:44:02.249Z,50.53
2022-11-27T01:46:29.081Z,56.77
2022-11-27T01:49:16.237Z,53.23
2022-11-27T01:51:49.288Z,48.97
2022-11-27T01:54:17.228Z,55.27
2022-11-27T01:56:46.255Z,56.00
2022-11-27T01:59:13.085Z,47.90
2022-11-27T02:01:39.962Z,54.33
2022-11-27T02:04:06.847Z,55.87
2022-11-27T02:06:33.648Z,48.23
2022-11-27T02:09:00.429Z,49.43
2022-11-27T02:11:45.908Z,60.13
2022-11-27T02:14:28.552Z,56.50
2022-11-27T02:16:55.382Z,57.90
2022-11-27T02:19:25.493Z,67.30
2022-11-27T02:21:59.483Z,64.20
2022-11-27T02:24:29.084Z,61.40
2022-11-27T02:26:59.010Z,60.60
2022-11-27T02:29:27.998Z,54.27
2022-11-27T02:32:13.652Z,46.80
2022-11-27T02:34:46.283Z,50.90
2022-11-27T02:37:39.139Z,47.20
2022-11-27T02:40:14.699Z,55.37
2022-11-27T02:42:53.804Z,46.13
2022-11-27T02:45:26.822Z,44.50
2022-11-27T02:47:55.807Z,54.30
2022-11-27T02:50:23.877Z,61.83
2022-11-27T02:52:52.574Z,60.00
2022-11-27T02:55:22.348Z,52.80
2022-11-27T02:57:49.741Z,58.87
2022-11-27T03:00:17.243Z,60.50
2022-11-27T03:02:47.549Z,60.83
2022-11-27T03:05:17.847Z,71.13
2022-11-27T03:07:47.821Z,67.30
2022-11-27T03:10:19.404Z,60.27
2022-11-27T03:12:47.269Z,59.20
2022-11-27T03:15:14.248Z,66.47
2022-11-27T03:17:52.811Z,63.27
2022-11-27T03:20:21.939Z,56.20
2022-11-27T03:22:48.836Z,61.13
2022-11-27T03:25:16.762Z,52.83
2022-11-27T03:27:49.397Z,60.87
2022-11-27T03:30:16.243Z,61.77
2022-11-27T03:32:43.299Z,61.53
2022-11-27T03:35:11.933Z,61.80
2022-11-27T03:37:38.821Z,64.57
2022-11-27T03:40:07.338Z,57.87
2022-11-27T03:42:34.251Z,56.63
2022-11-27T03:45:36.526Z,53.53
2022-11-27T03:48:06.330Z,62.97
2022-11-27T03:50:46.679Z,62.87
2022-11-27T03:53:32.391Z,62.27
2022-11-27T03:56:09.756Z,56.77
2022-11-27T03:58:40.927Z,57.67
2022-11-27T04:01:11.078Z,56.53
2022-11-27T04:03:38.182Z,48.63
2022-11-27T04:06:05.333Z,50.07
2022-11-27T04:08:32.216Z,54.40
2022-11-27T04:10:59.026Z,64.63
2022-11-27T04:13:25.857Z,62.53
2022-11-27T04:15:52.753Z,59.60
2022-11-27T04:18:19.557Z,59.30
2022-11-27T04:20:46.403Z,58.23
2022-11-27T04:23:13.192Z,56.40
2022-11-27T04:25:40.124Z,62.70
2022-11-27T04:28:06.905Z,54.57
2022-11-27T04:30:34.131Z,62.53
2022-11-27T04:33:01.026Z,67.77
2022-11-27T04:35:27.891Z,64.73
2022-11-27T04:37:56.307Z,64.97
2022-11-27T04:40:23.153Z,60.43
2022-11-27T04:42:50.874Z,58.63
2022-11-27T04:45:17.744Z,65.67
2022-11-27T04:47:44.721Z,59.97
2022-11-27T04:50:11.803Z,70.40
2022-11-27T04:52:38.697Z,62.37
2022-11-27T04:55:06.473Z,59.23
2022-11-27T04:57:33.379Z,73.30
2022-11-27T05:00:00.395Z,65.97
2022-11-27T05:02:27.237Z,48.30
2022-11-27T05:04:54.128Z,58.73
2022-11-27T05:07:20.994Z,63.77
2022-11-27T05:09:47.891Z,59.70
2022-11-27T05:12:14.662Z,56.80
2022-11-27T05:14:41.836Z,64.20
2022-11-27T05:17:09.295Z,68.73
2022-11-27T05:19:36.178Z,66.57
2022-11-27T05:22:03.652Z,64.30
2022-11-27T05:24:30.499Z,62.00
2022-11-27T05:26:57.395Z,65.57
2022-11-27T05:29:24.982Z,60.33
2022-11-27T05:31:51.834Z,54.23
2022-11-27T05:34:19.127Z,67.03
2022-11-27T05:36:45.930Z,68.37
2022-11-27T05:39:12.949Z,63.17
2022-11-27T05:41:40.963Z,60.97
2022-11-27T05:44:07.810Z,51.93
2022-11-27T05:46:34.811Z,57.60
2022-11-27T05:49:01.626Z,59.87
2022-11-27T05:51:28.576Z,68.00
2022-11-27T05:53:55.496Z,63.97
2022-11-27T05:56:22.238Z,58.77
2022-11-27T05:58:49.773Z,51.50
2022-11-27T06:01:17.311Z,57.70
2022-11-27T06:03:44.491Z,52.50
2022-11-27T06:06:18.617Z,54.13
2022-11-27T06:08:46.361Z,57.73
2022-11-27T06:11:17.538Z,61.30
2022-11-27T06:13:44.969Z,62.73
2022-11-27T06:16:14.253Z,62.60
2022-11-27T06:18:41.086Z,69.93
2022-11-27T06:21:09.072Z,64.20
2022-11-27T06:23:36.203Z,70.70
2022-11-27T06:26:16.674Z,71.03
2022-11-27T06:28:43.817Z,59.27
2022-11-27T06:31:17.299Z,57.33
2022-11-27T06:33:44.963Z,54.00
2022-11-27T06:36:11.804Z,57.67
2022-11-27T06:38:39.591Z,58.57
2022-11-27T06:41:07.736Z,57.80
2022-11-27T06:43:35.431Z,63.97
2022-11-27T06:46:03.612Z,66.73
2022-11-27T06:48:30.738Z,56.57
2022-11-27T06:51:01.338Z,51.20
2022-11-27T06:53:29.077Z,56.77
2022-11-27T06:55:56.128Z,64.37
2022-11-27T06:58:27.759Z,54.33
2022-11-27T07:01:01.943Z,63.40
2022-11-27T07:03:28.921Z,64.57
2022-11-27T07:05:55.849Z,61.73
2022-11-27T07:08:22.735Z,61.20
2022-11-27T07:10:49.542Z,64.73
2022-11-27T07:13:16.527Z,61.60
2022-11-27T07:15:43.624Z,64.77
2022-11-27T07:18:10.906Z,63.90
2022-11-27T07:20:37.723Z,66.87
2022-11-27T07:23:04.558Z,64.00
2022-11-27T07:25:31.349Z,70.80
2022-11-27T07:27:58.187Z,67.87
2022-11-27T07:30:25.055Z,59.87
2022-11-27T07:32:51.982Z,66.73
2022-11-27T07:35:18.878Z,67.53
2022-11-27T07:37:45.761Z,73.00
2022-11-27T07:40:14.839Z,64.57
2022-11-27T07:42:42.061Z,60.73
2022-11-27T07:45:10.240Z,63.47
2022-11-27T07:47:37.411Z,65.97
2022-11-27T07:50:05.908Z,63.40
2022-11-27T07:52:39.539Z,61.87
2022-11-27T07:55:08.454Z,80.40
2022-11-27T07:57:35.259Z,102.00
2022-11-27T08:00:02.092Z,92.93
2022-11-27T08:02:31.346Z,87.67
2022-11-27T08:04:58.244Z,82.83
2022-11-27T08:07:28.960Z,61.63
2022-11-27T08:09:57.790Z,58.90
2022-11-27T08:12:25.286Z,58.03
2022-11-27T08:14:52.138Z,60.10
2022-11-27T08:17:18.945Z,60.63
2022-11-27T08:19:45.897Z,64.43
2022-11-27T08:22:13.564Z,67.60
2022-11-27T08:24:42.716Z,69.90
2022-11-27T08:27:10.251Z,79.20
2022-11-27T08:29:37.390Z,75.67
2022-11-27T08:32:04.674Z,67.07
2022-11-27T08:34:31.588Z,73.67
2022-11-27T08:36:58.378Z,86.30
2022-11-27T08:39:26.812Z,66.73
2022-11-27T08:41:54.020Z,61.87
2022-11-27T08:44:20.940Z,64.37
2022-11-27T08:46:47.712Z,60.87
2022-11-27T08:49:14.694Z,54.07
2022-11-27T08:51:41.520Z,57.93
2022-11-27T08:54:08.476Z,56.93
2022-11-27T08:56:36.262Z,52.53
2022-11-27T08:59:03.232Z,50.07
2022-11-27T09:01:31.926Z,51.97
2022-11-27T09:03:59.629Z,45.10
2022-11-27T09:06:28.411Z,51.27
2022-11-27T09:08:59.306Z,51.53
2022-11-27T09:11:26.701Z,47.33
2022-11-27T09:13:53.953Z,45.30
2022-11-27T09:16:22.223Z,42.83
2022-11-27T09:18:50.491Z,50.47
2022-11-27T09:21:18.525Z,47.10
2022-11-27T09:23:45.601Z,44.70
2022-11-27T09:26:14.299Z,38.47
2022-11-27T09:28:41.727Z,45.33
2022-11-27T09:31:09.710Z,39.40
2022-11-27T09:33:37.596Z,53.83
2022-11-27T09:36:06.309Z,44.27
2022-11-27T09:38:33.127Z,47.10
2022-11-27T09:41:22.272Z,50.43
2022-11-27T09:44:01.172Z,48.63
2022-11-27T09:46:32.839Z,39.80
2022-11-27T09:49:02.602Z,44.33
2022-11-27T09:51:35.864Z,38.80
2022-11-27T09:54:06.927Z,40.77
2022-11-27T09:56:35.035Z,31.90
2022-11-27T09:59:02.566Z,38.10
2022-11-27T10:01:42.935Z,34.50
2022-11-27T10:04:16.725Z,36.77
2022-11-27T10:06:43.814Z,33.43
2022-11-27T10:09:12.456Z,40.27
2022-11-27T10:11:39.355Z,35.53
2022-11-27T10:14:06.194Z,34.77
2022-11-27T10:16:44.859Z,40.03
2022-11-27T10:19:22.013Z,34.27
2022-11-27T10:21:57.328Z,40.60
2022-11-27T10:24:36.784Z,36.20
2022-11-27T10:27:09.359Z,43.47
2022-11-27T10:29:39.800Z,39.87
2022-11-27T10:32:39.600Z,39.63
2022-11-27T10:35:04.411Z,35.80
2022-11-27T10:37:38.545Z,40.67
2022-11-27T10:40:05.400Z,45.80
2022-11-27T10:42:35.129Z,41.23
2022-11-27T10:45:03.792Z,41.33
2022-11-27T10:47:33.857Z,47.70
2022-11-27T10:50:01.179Z,51.17
2022-11-27T10:52:28.144Z,44.80
2022-11-27T10:55:00.470Z,52.80
2022-11-27T10:57:30.140Z,50.77
2022-11-27T11:00:10.638Z,50.50
2022-11-27T11:02:39.074Z,49.77
2022-11-27T11:08:06.820Z,49.83
2022-11-27T11:10:35.297Z,51.47
2022-11-27T11:13:11.364Z,41.47
2022-11-27T11:16:04.332Z,48.80
2022-11-27T11:18:32.917Z,48.00
2022-11-27T11:21:05.200Z,51.43
2022-11-27T11:23:33.978Z,45.90
2022-11-27T11:26:03.290Z,38.90
2022-11-27T11:28:32.966Z,46.93
2022-11-27T11:31:09.310Z,54.07
2022-11-27T11:33:39.660Z,48.90
2022-11-27T11:36:11.698Z,48.40
2022-11-27T11:38:42.380Z,50.53
2022-11-27T11:41:09.871Z,55.10
2022-11-27T11:43:37.402Z,50.40
2022-11-27T11:46:17.904Z,49.70
2022-11-27T11:48:55.412Z,46.27
2022-11-27T11:51:34.455Z,48.83
2022-11-27T11:54:24.565Z,44.87
2022-11-27T11:56:52.956Z,49.67
2022-11-27T11:59:31.441Z,42.47
2022-11-27T12:02:14.687Z,44.80
2022-11-27T12:05:03.716Z,45.00
2022-11-27T12:07:36.459Z,42.67
2022-11-27T12:10:03.625Z,41.60
2022-11-27T12:12:33.487Z,39.03
2022-11-27T12:15:03.688Z,32.07
2022-11-27T12:17:48.890Z,36.87
2022-11-27T12:20:17.674Z,37.27
2022-11-27T12:23:08.477Z,42.80
2022-11-27T12:25:42.025Z,37.63
2022-11-27T12:28:09.597Z,35.97
2022-11-27T12:30:43.985Z,45.73
2022-11-27T12:33:29.945Z,29.10
2022-11-27T12:35:59.469Z,39.87
2022-11-27T12:38:32.028Z,35.87
2022-11-27T12:41:34.303Z,32.07
2022-11-27T12:44:01.706Z,34.23
2022-11-27T12:46:52.312Z,31.90
2022-11-27T12:49:22.588Z,35.23
2022-11-27T12:51:54.524Z,29.03
2022-11-27T12:54:25.779Z,26.77
2022-11-27T12:56:56.662Z,32.63
2022-11-27T12:59:23.503Z,33.27
2022-11-27T13:02:01.679Z,30.97
2022-11-27T13:04:33.960Z,36.30
2022-11-27T13:07:06.892Z,32.40
2022-11-27T13:09:42.758Z,29.07
2022-11-27T13:12:11.721Z,34.43
2022-11-27T13:14:39.209Z,28.63
2022-11-27T13:17:09.027Z,28.67
2022-11-27T13:19:42.727Z,32.57
2022-11-27T13:22:12.067Z,38.10
2022-11-27T13:24:39.218Z,32.20
2022-11-27T13:27:06.284Z,32.03
2022-11-27T13:29:39.451Z,30.67
2022-11-27T13:32:07.846Z,33.53
2022-11-27T13:34:42.066Z,26.80
2022-11-27T13:37:09.961Z,34.40
2022-11-27T13:39:42.335Z,33.03
2022-11-27T13:42:16.555Z,34.73
2022-11-27T13:44:45.494Z,34.73
2022-11-27T13:47:14.641Z,39.23
2022-11-27T13:49:43.553Z,53.37
2022-11-27T13:52:12.659Z,44.23
2022-11-27T13:54:40.075Z,55.47
2022-11-27T13:57:14.768Z,49.63
2022-11-27T13:59:41.783Z,41.77
2022-11-27T14:02:09.300Z,39.57
2022-11-27T14:04:50.596Z,45.03
2022-11-27T14:07:21.753Z,36.73
2022-11-27T14:09:56.537Z,39.10
2022-11-27T14:12:33.507Z,36.10
2022-11-27T14:15:18.671Z,33.93
2022-11-27T14:17:46.762Z,36.90
2022-11-27T14:20:16.972Z,34.73
2022-11-27T14:23:11.096Z,34.80
2022-11-27T14:25:38.823Z,33.10
2022-11-27T14:28:22.252Z,32.33
2022-11-27T14:30:50.466Z,32.40
2022-11-27T14:33:19.122Z,36.03
2022-11-27T14:35:53.455Z,31.27
2022-11-27T14:38:20.482Z,39.17
2022-11-27T14:40:47.747Z,36.20
2022-11-27T14:43:16.171Z,41.07
2022-11-27T14:45:44.714Z,53.57
2022-11-27T14:48:25.260Z,61.13
2022-11-27T14:50:53.219Z,49.90
2022-11-27T14:53:21.020Z,47.77
2022-11-27T14:55:49.462Z,53.57
2022-11-27T14:58:25.033Z,56.77
2022-11-27T15:00:55.059Z,45.00
2022-11-27T15:03:22.322Z,41.23
2022-11-27T15:05:55.287Z,47.53
2022-11-27T15:08:22.360Z,50.03
2022-11-27T15:10:52.593Z,76.20
2022-11-27T15:13:30.365Z,72.90
2022-11-27T15:16:05.585Z,55.53
2022-11-27T15:18:34.087Z,62.03
2022-11-27T15:21:02.285Z,56.17
2022-11-27T15:23:30.437Z,93.07
2022-11-27T15:26:00.362Z,42.53
2022-11-27T15:28:35.308Z,37.17
2022-11-27T15:31:03.956Z,31.00
2022-11-27T15:33:32.721Z,44.07
2022-11-27T15:36:14.543Z,40.53
2022-11-27T15:38:41.749Z,61.70
2022-11-27T15:41:22.662Z,44.70
2022-11-27T15:43:49.646Z,56.07
2022-11-27T15:46:19.925Z,51.97
2022-11-27T15:48:46.868Z,71.00
2022-11-27T15:51:13.682Z,64.63
2022-11-27T15:53:40.483Z,69.87
2022-11-27T15:56:07.522Z,68.53
2022-11-27T15:58:34.289Z,62.63
2022-11-27T16:01:01.221Z,56.30
2022-11-27T16:03:28.814Z,63.57
2022-11-27T16:05:55.819Z,75.83
2022-11-27T16:08:22.611Z,47.63
2022-11-27T16:10:49.490Z,49.83
2022-11-27T16:13:16.299Z,56.00
2022-11-27T16:15:43.163Z,73.73
2022-11-27T16:18:10.928Z,71.20
2022-11-27T16:20:37.674Z,86.13
2022-11-27T16:23:04.595Z,68.00
2022-11-27T16:25:31.367Z,64.47
2022-11-27T16:28:02.770Z,56.93
2022-11-27T16:30:30.289Z,74.53
2022-11-27T16:32:57.665Z,74.87
2022-11-27T16:35:25.154Z,82.70
2022-11-27T16:37:52.408Z,83.80
2022-11-27T16:40:19.915Z,90.60
2022-11-27T16:42:47.292Z,94.83
2022-11-27T16:45:14.085Z,88.80
2022-11-27T16:47:40.879Z,88.90
2022-11-27T16:50:10.508Z,74.63
2022-11-27T16:52:37.425Z,87.30
2022-11-27T16:55:04.761Z,111.20
2022-11-27T16:57:32.021Z,97.50
2022-11-27T16:59:59.019Z,96.73
2022-11-27T17:02:29.013Z,77.33
2022-11-27T17:04:56.282Z,68.33
2022-11-27T17:07:23.107Z,65.47
2022-11-27T17:09:50.024Z,67.77
2022-11-27T17:12:16.931Z,82.10
2022-11-27T17:14:44.037Z,72.73
2022-11-27T17:17:10.943Z,73.87
2022-11-27T17:19:37.770Z,62.03
2022-11-27T17:22:04.910Z,65.53
2022-11-27T17:24:36.190Z,66.97
2022-11-27T17:27:05.817Z,68.03
2022-11-27T17:29:35.410Z,62.33
2022-11-27T17:32:03.254Z,47.67
2022-11-27T17:34:30.292Z,59.47
2022-11-27T17:36:58.814Z,63.33
2022-11-27T17:39:26.537Z,71.07
2022-11-27T17:41:53.378Z,60.23
2022-11-27T17:44:20.208Z,70.20
2022-11-27T17:46:50.230Z,67.10
2022-11-27T17:49:19.698Z,56.90
2022-11-27T17:51:48.860Z,45.33
2022-11-27T17:54:16.009Z,34.87
2022-11-27T17:56:43.300Z,37.83
2022-11-27T17:59:10.672Z,38.17
2022-11-27T18:01:38.623Z,40.57
2022-11-27T18:04:06.178Z,39.87
2022-11-27T18:06:33.586Z,39.67
2022-11-27T18:09:01.205Z,45.80
2022-11-27T18:11:29.529Z,58.70
2022-11-27T18:13:58.969Z,55.97
2022-11-27T18:16:29.305Z,46.23
2022-11-27T18:18:57.100Z,40.43
2022-11-27T18:21:27.257Z,37.47
2022-11-27T18:24:21.926Z,37.80
2022-11-27T18:29:28.790Z,36.83
2022-11-27T18:31:55.708Z,35.27
2022-11-27T18:34:22.592Z,39.27
2022-11-27T18:36:49.433Z,78.17
2022-11-27T18:39:16.345Z,71.30
2022-11-27T18:41:43.131Z,86.80
2022-11-27T18:44:10.105Z,96.57
2022-11-27T18:46:37.986Z,79.03
2022-11-27T18:49:05.148Z,46.27
2022-11-27T18:51:32.388Z,46.23
2022-11-27T18:53:59.556Z,40.13
2022-11-27T18:56:28.316Z,42.13
2022-11-27T18:58:55.208Z,43.43
2022-11-27T19:01:23.485Z,42.37
2022-11-27T19:03:50.686Z,40.00
2022-11-27T19:06:19.394Z,41.57
2022-11-27T19:08:47.136Z,47.03
2022-11-27T19:11:18.800Z,46.43
2022-11-27T19:13:46.163Z,52.20
2022-11-27T19:16:14.367Z,50.83
2022-11-27T19:18:41.966Z,46.30
2022-11-27T19:21:09.922Z,48.90
2022-11-27T19:23:39.328Z,47.33
2022-11-27T19:26:08.226Z,42.97
2022-11-27T19:28:35.609Z,41.83
2022-11-27T19:31:07.559Z,54.13
2022-11-27T19:33:36.343Z,60.83
2022-11-27T19:36:08.809Z,72.43
2022-11-27T19:38:42.574Z,106.83
2022-11-27T19:41:14.353Z,92.90
2022-11-27T19:43:41.291Z,74.10
2022-11-27T19:46:14.534Z,89.37
2022-11-27T19:48:41.532Z,86.17
2022-11-27T19:51:08.331Z,96.10
2022-11-27T19:53:35.382Z,79.77
2022-11-27T19:56:02.148Z,73.87
2022-11-27T19:58:29.066Z,98.77
2022-11-27T20:01:12.039Z,85.47
2022-11-27T20:03:39.186Z,95.97
2022-11-27T20:06:07.143Z,57.23
2022-11-27T20:08:34.863Z,50.43
2022-11-27T20:11:02.589Z,50.23
2022-11-27T20:13:29.569Z,54.97
2022-11-27T20:15:56.592Z,54.50
2022-11-27T20:18:23.528Z,53.37
2022-11-27T20:20:50.385Z,44.63
2022-11-27T20:23:17.330Z,51.80
2022-11-27T20:25:44.217Z,47.13
2022-11-27T20:28:11.253Z,46.60
2022-11-27T20:30:41.133Z,47.83
2022-11-27T20:33:08.680Z,46.43
2022-11-27T20:35:35.845Z,48.43
2022-11-27T20:38:02.952Z,39.93
2022-11-27T20:40:30.185Z,44.10
2022-11-27T20:42:57.012Z,53.10
2022-11-27T20:45:23.911Z,47.80
2022-11-27T20:47:50.710Z,48.87
2022-11-27T20:50:19.862Z,46.57
2022-11-27T20:52:48.116Z,51.67
2022-11-27T20:55:14.965Z,49.87
2022-11-27T20:57:42.582Z,48.60
2022-11-27T21:00:10.173Z,54.77
2022-11-27T21:02:41.165Z,53.87
2022-11-27T21:05:08.526Z,57.87
2022-11-27T21:07:36.598Z,66.50
2022-11-27T21:10:06.513Z,66.57
2022-11-27T21:12:33.615Z,66.43
2022-11-27T21:15:00.552Z,64.03
2022-11-27T21:17:27.730Z,63.27
2022-11-27T21:19:54.627Z,68.63
2022-11-27T21:22:22.563Z,54.63
2022-11-27T21:24:50.447Z,60.43
2022-11-27T21:27:17.603Z,59.40
2022-11-27T21:29:44.512Z,55.20
2022-11-27T21:32:11.975Z,56.47
2022-11-27T21:34:39.520Z,49.17
2022-11-27T21:37:06.857Z,50.93
2022-11-27T21:39:34.370Z,49.30
2022-11-27T21:42:01.111Z,49.77
2022-11-27T21:44:28.013Z,46.03
2022-11-27T21:46:56.936Z,44.17
2022-11-27T21:49:24.273Z,47.20
2022-11-27T21:51:54.710Z,47.37
2022-11-27T21:54:29.437Z,48.67
2022-11-27T21:56:56.592Z,45.97
2022-11-27T21:59:24.322Z,46.90
2022-11-27T22:01:51.586Z,48.90
2022-11-27T22:04:18.725Z,75.43
2022-11-27T22:06:45.890Z,79.37
2022-11-27T22:09:15.692Z,56.30
2022-11-27T22:11:43.918Z,44.47
2022-11-27T22:14:11.300Z,40.50
2022-11-27T22:16:44.811Z,49.37
2022-11-27T22:19:14.444Z,46.07
2022-11-27T22:21:41.598Z,42.67
2022-11-27T22:24:13.512Z,55.07
2022-11-27T22:26:45.115Z,52.97
2022-11-27T22:29:13.098Z,50.33
2022-11-27T22:31:40.212Z,49.43
2022-11-27T22:34:07.094Z,53.83
2022-11-27T22:36:34.779Z,51.30
2022-11-27T22:39:06.042Z,54.57
2022-11-27T22:41:36.546Z,50.33
2022-11-27T22:44:12.234Z,62.10
2022-11-27T22:46:40.467Z,61.97
2022-11-27T22:49:07.546Z,61.07
2022-11-27T22:51:35.579Z,73.07
2022-11-27T22:54:02.972Z,68.57
2022-11-27T22:56:30.093Z,64.37
2022-11-27T22:59:24.830Z,57.13
2022-11-27T23:01:46.175Z,66.40
2022-11-27T23:04:13.282Z,64.23
2022-11-27T23:06:40.209Z,64.17
2022-11-27T23:09:07.751Z,66.53
2022-11-27T23:11:34.672Z,64.47
2022-11-27T23:14:01.738Z,60.77
2022-11-27T23:16:28.634Z,63.23
2022-11-27T23:18:55.541Z,64.20
2022-11-27T23:21:24.173Z,57.27
2022-11-27T23:23:51.366Z,61.97
2022-11-27T23:26:19.906Z,60.20
2022-11-27T23:28:47.679Z,61.93
2022-11-27T23:31:29.325Z,64.73
2022-11-27T23:33:56.706Z,59.13
2022-11-27T23:36:23.502Z,65.60
2022-11-27T23:38:50.366Z,64.80
2022-11-27T23:41:18.441Z,60.70
2022-11-27T23:43:45.293Z,64.70
2022-11-27T23:46:14.124Z,67.57
2022-11-27T23:48:41.286Z,58.53
2022-11-27T23:51:09.097Z,66.17
2022-11-27T23:53:36.925Z,57.17
2022-11-27T23:56:04.586Z,60.23
2022-11-27T23:58:31.542Z,50.57
